Time;durP1;ratioP1;P1;durP2;ratioP2;P2;SDS_P1;SDS_P2;PMS_P1;PMS_P2;Temp;Humidity;BMP_temperature;BMP_pressure;BME280_temperature;BME280_humidity;BME280_pressure;Samples;Min_cycle;Max_cycle;Signal;HPM_P1;HPM_P2
2022/08/05 00:01:52;;;;;;;4.83;3.30;;;22.50;1.00;;;;;;4955027;28;20596;-84
2022/08/05 00:04:18;;;;;;;5.47;3.50;;;22.50;1.00;;;;;;4952500;28;20206;-83
2022/08/05 00:06:43;;;;;;;5.30;3.20;;;22.40;1.00;;;;;;4937031;28;20202;-84
2022/08/05 00:09:09;;;;;;;3.70;3.27;;;22.40;1.00;;;;;;4954306;28;20240;-83
2022/08/05 00:11:34;;;;;;;4.47;3.00;;;22.40;1.00;;;;;;4955973;28;20454;-84
2022/08/05 00:14:01;;;;;;;9.90;3.60;;;22.40;1.00;;;;;;4957784;28;20614;-83
2022/08/05 00:16:27;;;;;;;7.03;3.90;;;22.30;1.00;;;;;;4953746;28;20211;-84
2022/08/05 00:18:52;;;;;;;5.33;4.00;;;22.30;1.00;;;;;;4957528;28;20481;-83
2022/08/05 00:21:18;;;;;;;7.50;4.97;;;22.20;1.00;;;;;;4937596;28;20332;-84
2022/08/05 00:23:45;;;;;;;4.90;3.50;;;22.20;1.00;;;;;;4955930;28;20192;-82
2022/08/05 00:26:11;;;;;;;6.90;4.20;;;22.20;1.00;;;;;;4951981;28;20200;-83
2022/08/05 00:28:40;;;;;;;6.10;4.00;;;22.20;1.00;;;;;;4939972;28;20472;-82
2022/08/05 00:31:06;;;;;;;7.33;4.50;;;22.20;1.00;;;;;;4955414;28;20464;-83
2022/08/05 00:33:33;;;;;;;3.93;3.37;;;22.20;1.00;;;;;;4939732;29;20453;-84
2022/08/05 00:35:59;;;;;;;7.63;3.67;;;22.20;1.00;;;;;;4955253;28;20945;-84
2022/08/05 00:38:24;;;;;;;7.83;4.60;;;22.10;39.10;;;;;;4975516;23;20509;-85
2022/08/05 00:40:55;;;;;;;6.23;4.40;;;22.10;87.10;;;;;;4997127;28;20419;-85
2022/08/05 00:43:21;;;;;;;5.60;4.00;;;22.00;99.90;;;;;;4980789;28;20185;-85
2022/08/05 00:45:48;;;;;;;8.97;4.23;;;22.00;99.90;;;;;;4982002;28;20461;-85
2022/08/05 00:48:19;;;;;;;7.23;5.10;;;22.00;99.90;;;;;;4997630;28;21192;-86
2022/08/05 00:50:47;;;;;;;9.10;4.97;;;22.00;1.00;;;;;;4998955;28;20432;-85
2022/08/05 00:53:19;;;;;;;6.17;4.77;;;21.90;1.00;;;;;;4982003;28;20949;-85
2022/08/05 00:55:45;;;;;;;7.73;5.10;;;21.80;1.00;;;;;;4996205;28;20466;-85
2022/08/05 00:58:12;;;;;;;7.50;6.13;;;21.80;1.00;;;;;;4996643;28;20504;-86
2022/08/05 01:00:39;;;;;;;8.20;6.20;;;21.70;83.80;;;;;;4992780;28;20605;-85
2022/08/05 01:03:05;;;;;;;9.87;5.83;;;21.70;99.90;;;;;;4995919;28;20444;-85
2022/08/05 01:05:31;;;;;;;12.33;6.10;;;21.70;99.90;;;;;;4995408;28;20521;-85
2022/08/05 01:07:56;;;;;;;8.13;5.63;;;21.60;99.90;;;;;;4997602;28;20474;-87
2022/08/05 01:10:27;;;;;;;6.43;5.37;;;21.60;99.90;;;;;;4993455;28;20198;-85
2022/08/05 01:12:56;;;;;;;6.70;5.60;;;21.60;99.90;;;;;;4998278;28;20256;-87
2022/08/05 01:15:28;;;;;;;9.83;5.40;;;21.60;1.00;;;;;;4995161;28;20542;-86
2022/08/05 01:18:08;;;;;;;5.73;5.13;;;21.60;1.00;;;;;;4997586;28;20515;-85
2022/08/05 01:21:06;;;;;;;7.50;6.20;;;21.60;1.00;;;;;;4995878;28;20436;-85
2022/08/05 01:23:48;;;;;;;7.97;5.43;;;21.50;99.90;;;;;;4995366;28;20453;-85
2022/08/05 01:26:41;;;;;;;7.37;5.60;;;21.50;99.90;;;;;;4998972;28;20442;-85
2022/08/05 01:29:19;;;;;;;8.00;6.30;;;21.40;1.00;;;;;;4997822;28;20463;-85
2022/08/05 01:31:48;;;;;;;8.80;7.90;;;21.40;1.00;;;;;;4990785;28;20469;-86
2022/08/05 01:34:28;;;;;;;11.37;6.90;;;21.40;1.00;;;;;;4999695;28;20483;-85
2022/08/05 01:37:01;;;;;;;8.53;5.87;;;21.30;1.00;;;;;;4996618;28;20474;-85
2022/08/05 01:39:32;;;;;;;11.33;4.90;;;21.30;17.70;;;;;;5001260;28;20465;-85
2022/08/05 01:42:00;;;;;;;7.87;5.60;;;21.30;99.90;;;;;;5009143;28;20813;-84
2022/08/05 01:44:26;;;;;;;7.17;5.70;;;21.30;99.90;;;;;;4999743;28;20437;-86
2022/08/05 01:46:53;;;;;;;7.67;6.17;;;21.30;99.90;;;;;;4995001;28;20447;-85
2022/08/05 01:49:22;;;;;;;8.60;6.17;;;21.20;1.00;;;;;;4996262;28;20529;-85
2022/08/05 01:51:48;;;;;;;10.23;6.23;;;21.20;99.90;;;;;;4994323;28;20435;-85
2022/08/05 01:54:16;;;;;;;6.50;5.70;;;21.10;1.00;;;;;;4997462;28;20805;-87
2022/08/05 01:56:43;;;;;;;8.90;6.03;;;21.10;1.00;;;;;;4998974;28;20985;-86
2022/08/05 01:59:13;;;;;;;9.70;6.10;;;21.00;99.90;;;;;;4995702;28;20457;-85
2022/08/05 02:01:45;;;;;;;8.97;5.80;;;21.00;1.00;;;;;;4998514;28;20448;-85
2022/08/05 02:04:13;;;;;;;8.43;6.73;;;20.90;99.90;;;;;;4993874;28;20802;-85
2022/08/05 02:06:38;;;;;;;6.87;6.07;;;20.80;99.90;;;;;;4995369;28;20453;-85
2022/08/05 02:09:05;;;;;;;7.70;5.57;;;20.70;1.00;;;;;;5002189;28;20848;-85
2022/08/05 02:11:47;;;;;;;8.40;6.40;;;20.70;1.00;;;;;;5002154;28;20201;-85
2022/08/05 02:14:19;;;;;;;12.73;6.30;;;20.60;1.00;;;;;;5009795;28;20507;-85
2022/08/05 02:16:51;;;;;;;9.70;6.27;;;20.60;94.40;;;;;;4995007;28;20580;-85
2022/08/05 02:19:19;;;;;;;7.10;6.03;;;20.60;99.90;;;;;;4999117;28;20461;-86
2022/08/05 02:22:12;;;;;;;10.70;6.30;;;20.60;99.90;;;;;;5002253;28;20441;-85
2022/08/05 02:24:39;;;;;;;8.30;6.50;;;20.60;99.90;;;;;;5003419;28;20433;-85
2022/08/05 02:27:09;;;;;;;12.67;7.23;;;20.60;83.80;;;;;;4998489;28;20444;-85
2022/08/05 02:29:36;;;;;;;11.40;7.37;;;20.70;99.90;;;;;;5004380;28;20461;-87
2022/08/05 02:32:04;;;;;;;16.40;7.40;;;20.70;99.90;;;;;;4997588;28;20517;-85
2022/08/05 02:34:33;;;;;;;8.13;7.30;;;20.60;90.20;;;;;;5005330;28;20964;-85
2022/08/05 02:37:03;;;;;;;9.90;7.80;;;20.60;96.50;;;;;;5000378;28;20495;-86
2022/08/05 02:39:33;;;;;;;9.50;6.77;;;20.50;99.90;;;;;;5005741;28;20477;-85
2022/08/05 02:42:00;;;;;;;9.13;7.30;;;20.50;99.90;;;;;;5001653;28;20481;-85
2022/08/05 02:44:27;;;;;;;11.20;6.73;;;20.40;99.90;;;;;;5000232;28;20493;-85
2022/08/05 02:46:55;;;;;;;7.70;6.87;;;20.40;99.90;;;;;;4995683;28;20452;-85
2022/08/05 02:49:22;;;;;;;12.23;8.77;;;20.30;99.90;;;;;;4993574;28;20465;-85
2022/08/05 02:51:52;;;;;;;10.70;8.70;;;20.30;99.90;;;;;;4994140;28;20440;-85
2022/08/05 02:54:20;;;;;;;10.20;9.20;;;20.30;99.90;;;;;;4996832;28;20918;-85
2022/08/05 02:56:48;;;;;;;11.73;9.20;;;20.20;99.90;;;;;;4996336;28;20595;-85
2022/08/05 02:59:16;;;;;;;9.67;8.13;;;20.00;99.90;;;;;;4998959;28;20466;-84
2022/08/05 03:01:42;;;;;;;9.27;8.40;;;20.00;99.90;;;;;;4999839;28;20440;-85
2022/08/05 03:04:12;;;;;;;10.77;8.07;;;20.00;99.90;;;;;;5001680;28;20521;-85
2022/08/05 03:06:41;;;;;;;10.27;9.27;;;20.10;99.90;;;;;;4997611;28;20548;-85
2022/08/05 03:09:11;;;;;;;12.13;9.00;;;20.10;1.00;;;;;;5000836;28;20486;-87
2022/08/05 03:11:41;;;;;;;11.30;9.20;;;20.20;1.00;;;;;;5002144;28;20447;-86
2022/08/05 03:14:07;;;;;;;8.90;8.00;;;20.20;1.00;;;;;;4999042;28;20445;-85
2022/08/05 03:16:32;;;;;;;11.47;9.50;;;20.30;99.90;;;;;;4999236;28;20476;-85
2022/08/05 03:19:00;;;;;;;8.90;8.00;;;20.40;99.90;;;;;;5000265;28;20268;-85
2022/08/05 03:21:25;;;;;;;11.37;8.47;;;20.40;99.90;;;;;;5006719;28;20283;-84
2022/08/05 03:23:51;;;;;;;10.60;8.20;;;20.40;99.90;;;;;;5002766;28;20468;-86
2022/08/05 03:26:17;;;;;;;11.57;8.93;;;20.50;99.90;;;;;;4990840;28;20181;-86
2022/08/05 03:28:43;;;;;;;11.20;8.70;;;20.50;99.90;;;;;;5001745;28;20997;-86
2022/08/05 03:31:09;;;;;;;11.07;9.60;;;20.50;99.90;;;;;;5003267;28;20191;-85
2022/08/05 03:33:35;;;;;;;9.70;8.70;;;20.50;99.90;;;;;;5002647;28;20182;-85
2022/08/05 03:36:01;;;;;;;13.73;10.97;;;20.50;99.90;;;;;;5003384;28;21015;-88
2022/08/05 03:38:27;;;;;;;12.63;11.00;;;20.50;99.90;;;;;;5003973;28;20482;-85
2022/08/05 03:40:52;;;;;;;11.73;10.50;;;20.50;99.90;;;;;;5003589;28;20213;-85
2022/08/05 03:43:19;;;;;;;13.43;11.80;;;20.50;99.90;;;;;;4997415;28;20281;-85
2022/08/05 03:45:45;;;;;;;14.47;10.50;;;20.50;99.90;;;;;;5005450;28;20451;-85
2022/08/05 03:48:11;;;;;;;12.17;10.60;;;20.60;99.90;;;;;;5004333;28;20462;-85
2022/08/05 03:50:44;;;;;;;14.37;11.53;;;20.60;99.90;;;;;;4986851;28;20464;-85
2022/08/05 03:53:17;;;;;;;14.93;13.30;;;20.60;99.90;;;;;;4997272;28;20190;-85
2022/08/05 03:55:56;;;;;;;13.97;11.70;;;20.70;99.90;;;;;;5004988;28;20446;-85
2022/08/05 03:58:26;;;;;;;13.10;11.83;;;20.70;99.90;;;;;;4999362;28;20462;-85
2022/08/05 04:00:53;;;;;;;15.90;12.67;;;20.70;99.90;;;;;;5002150;28;20442;-85
2022/08/05 04:03:21;;;;;;;17.83;12.93;;;20.70;99.90;;;;;;5002150;28;20449;-85
2022/08/05 04:05:47;;;;;;;21.73;15.17;;;20.70;1.00;;;;;;5002300;28;20469;-85
2022/08/05 04:08:13;;;;;;;19.57;15.10;;;20.70;99.90;;;;;;5001575;28;20480;-87
2022/08/05 04:10:40;;;;;;;15.00;13.50;;;20.70;99.90;;;;;;5005548;28;20441;-85
2022/08/05 04:13:06;;;;;;;16.73;14.70;;;20.70;99.90;;;;;;5003166;28;20474;-86
2022/08/05 04:15:32;;;;;;;19.43;14.93;;;20.70;99.90;;;;;;4986995;28;20796;-85
2022/08/05 04:18:04;;;;;;;17.50;15.23;;;20.60;99.90;;;;;;5001035;28;20481;-86
2022/08/05 04:20:30;;;;;;;19.23;16.20;;;20.70;99.90;;;;;;5004363;28;20515;-86
2022/08/05 04:22:56;;;;;;;22.40;17.80;;;20.70;99.90;;;;;;5005339;28;20480;-85
2022/08/05 04:25:21;;;;;;;19.63;17.50;;;20.70;1.00;;;;;;5000192;28;20195;-85
2022/08/05 04:27:47;;;;;;;17.10;15.30;;;20.70;99.90;;;;;;5004402;28;20537;-85
2022/08/05 04:30:13;;;;;;;18.43;15.87;;;20.70;99.90;;;;;;5001710;28;20278;-88
2022/08/05 04:32:39;;;;;;;25.43;17.13;;;20.70;99.90;;;;;;5004433;28;20217;-86
2022/08/05 04:35:06;;;;;;;19.10;16.33;;;20.60;99.90;;;;;;5002981;28;20439;-86
2022/08/05 04:37:31;;;;;;;19.07;16.93;;;20.60;99.90;;;;;;5007621;28;20469;-86
2022/08/05 04:39:58;;;;;;;20.53;17.47;;;20.50;1.00;;;;;;5006479;28;20541;-85
2022/08/05 04:42:23;;;;;;;17.77;15.70;;;20.50;1.00;;;;;;5003898;28;20197;-85
2022/08/05 04:44:49;;;;;;;20.13;17.27;;;20.40;1.00;;;;;;5007953;28;20801;-85
2022/08/05 04:47:15;;;;;;;20.23;16.80;;;20.50;1.00;;;;;;4997161;28;20200;-85
2022/08/05 04:49:40;;;;;;;18.10;16.07;;;20.50;1.00;;;;;;5003022;28;20218;-85
2022/08/05 04:52:06;;;;;;;18.27;15.93;;;20.60;1.00;;;;;;5004229;28;20502;-85
2022/08/05 04:54:31;;;;;;;19.97;17.07;;;20.60;1.00;;;;;;5004691;28;20189;-85
2022/08/05 04:56:57;;;;;;;20.63;15.73;;;20.70;1.00;;;;;;5001125;28;20266;-86
2022/08/05 04:59:23;;;;;;;21.50;16.57;;;20.70;1.00;;;;;;5006543;28;20230;-86
2022/08/05 05:01:49;;;;;;;19.33;15.90;;;20.80;1.00;;;;;;5003184;28;20239;-85
2022/08/05 05:04:15;;;;;;;17.47;15.73;;;20.80;1.00;;;;;;5004946;28;20190;-86
2022/08/05 05:06:40;;;;;;;23.47;17.07;;;20.80;1.00;;;;;;5004437;28;20449;-85
2022/08/05 05:09:06;;;;;;;20.27;16.77;;;20.80;99.90;;;;;;5006935;28;20313;-85
2022/08/05 05:11:31;;;;;;;17.87;15.53;;;20.80;99.90;;;;;;5005253;28;20187;-86
2022/08/05 05:13:57;;;;;;;23.30;17.00;;;20.90;99.90;;;;;;4999212;28;20682;-85
2022/08/05 05:16:22;;;;;;;19.37;17.37;;;20.90;1.00;;;;;;4994219;28;20221;-84
2022/08/05 05:18:48;;;;;;;18.30;16.40;;;20.90;1.00;;;;;;4995379;28;20633;-86
2022/08/05 05:21:14;;;;;;;19.57;16.23;;;20.90;99.90;;;;;;4988909;28;20194;-85
2022/08/05 05:23:39;;;;;;;20.23;17.43;;;20.90;99.90;;;;;;4992398;28;20208;-85
2022/08/05 05:26:05;;;;;;;20.23;18.03;;;20.90;99.90;;;;;;4987248;28;20183;-85
2022/08/05 05:28:30;;;;;;;21.57;17.87;;;20.80;99.90;;;;;;4994732;28;20207;-87
2022/08/05 05:30:56;;;;;;;21.87;19.33;;;20.80;99.90;;;;;;4995439;28;20186;-85
2022/08/05 05:33:22;;;;;;;20.13;18.00;;;20.80;99.90;;;;;;4996565;28;20181;-85
2022/08/05 05:35:48;;;;;;;24.77;21.70;;;20.90;99.90;;;;;;4994240;28;20191;-86
2022/08/05 05:38:14;;;;;;;28.63;23.80;;;20.90;99.90;;;;;;4983133;28;20219;-85
2022/08/05 05:40:42;;;;;;;25.97;20.10;;;20.90;99.90;;;;;;4996233;28;20442;-85
2022/08/05 05:43:07;;;;;;;19.07;17.07;;;20.90;99.90;;;;;;4980595;28;20430;-86
2022/08/05 05:45:33;;;;;;;19.43;16.23;;;20.90;99.90;;;;;;4987292;28;20425;-86
2022/08/05 05:47:59;;;;;;;18.30;16.30;;;20.90;99.90;;;;;;4990085;28;20218;-86
2022/08/05 05:50:24;;;;;;;20.03;17.70;;;20.90;99.90;;;;;;4995944;28;20195;-85
2022/08/05 05:52:50;;;;;;;19.23;17.13;;;20.90;99.90;;;;;;4999077;28;20517;-86
2022/08/05 05:55:17;;;;;;;17.27;15.43;;;20.90;99.90;;;;;;4995095;28;20202;-86
2022/08/05 05:57:44;;;;;;;21.80;19.60;;;20.90;99.90;;;;;;4993826;28;20600;-88
2022/08/05 06:00:13;;;;;;;22.00;19.63;;;20.90;99.90;;;;;;5000602;28;20451;-85
2022/08/05 06:02:39;;;;;;;19.60;17.40;;;20.90;99.90;;;;;;4993305;28;20446;-86
2022/08/05 06:05:09;;;;;;;16.83;14.97;;;20.90;99.90;;;;;;4996286;28;20437;-86
2022/08/05 06:07:35;;;;;;;16.73;14.70;;;20.90;99.90;;;;;;4995731;28;20506;-87
2022/08/05 06:10:01;;;;;;;18.53;16.10;;;20.90;99.90;;;;;;4995130;28;20473;-87
2022/08/05 06:12:26;;;;;;;16.33;14.70;;;20.90;99.90;;;;;;4990290;28;20718;-86
2022/08/05 06:14:52;;;;;;;19.37;15.00;;;20.90;99.90;;;;;;4999431;28;20217;-87
2022/08/05 06:17:17;;;;;;;17.90;13.70;;;20.90;99.90;;;;;;4990494;28;20684;-87
2022/08/05 06:19:43;;;;;;;15.93;12.67;;;20.80;99.90;;;;;;4999597;28;20210;-87
2022/08/05 06:22:08;;;;;;;15.33;13.73;;;20.80;99.90;;;;;;4992904;28;20201;-87
2022/08/05 06:24:35;;;;;;;18.57;13.83;;;20.80;99.90;;;;;;4994096;28;20904;-88
2022/08/05 06:27:02;;;;;;;18.53;13.73;;;20.80;99.90;;;;;;4996439;28;20230;-89
2022/08/05 06:29:27;;;;;;;17.67;13.90;;;20.80;99.90;;;;;;4997163;28;20874;-87
2022/08/05 06:31:53;;;;;;;18.40;13.07;;;20.70;99.90;;;;;;4993369;28;20446;-89
2022/08/05 06:34:18;;;;;;;20.63;13.37;;;20.70;99.90;;;;;;4980454;28;20673;-89
2022/08/05 06:36:44;;;;;;;17.83;11.70;;;20.70;99.90;;;;;;4997668;28;20225;-86
2022/08/05 06:39:09;;;;;;;18.10;12.90;;;20.70;99.90;;;;;;4993460;28;20237;-87
2022/08/05 06:41:35;;;;;;;13.43;11.53;;;20.80;99.90;;;;;;4991418;28;20212;-87
2022/08/05 06:44:01;;;;;;;15.07;10.97;;;20.80;36.50;;;;;;4981226;28;20204;-87
2022/08/05 06:46:26;;;;;;;17.27;11.40;;;20.80;1.00;;;;;;4965608;28;20835;-86
2022/08/05 06:48:53;;;;;;;17.40;11.20;;;20.80;1.00;;;;;;4982549;28;20310;-87
2022/08/05 06:51:19;;;;;;;18.23;10.67;;;20.90;1.00;;;;;;4986758;28;20453;-87
2022/08/05 06:53:44;;;;;;;16.30;10.27;;;20.90;99.90;;;;;;4977160;28;20190;-86
2022/08/05 06:56:10;;;;;;;14.60;9.97;;;20.90;99.90;;;;;;4992897;28;20193;-86
2022/08/05 06:58:35;;;;;;;14.90;10.30;;;20.90;35.50;;;;;;4995453;28;20210;-87
2022/08/05 07:01:02;;;;;;;23.80;11.20;;;20.90;1.00;;;;;;4992835;28;20200;-87
2022/08/05 07:03:29;;;;;;;14.67;9.63;;;20.90;1.00;;;;;;4991472;28;20700;-86
2022/08/05 07:05:54;;;;;;;15.33;9.07;;;20.80;1.00;;;;;;4995120;28;20442;-87
2022/08/05 07:08:27;;;;;;;9.23;7.50;;;20.80;1.00;;;;;;4985917;28;20553;-87
2022/08/05 07:10:53;;;;;;;10.13;8.17;;;20.80;1.00;;;;;;4994778;28;20615;-87
2022/08/05 07:18:48;;;;;;;13.07;7.30;;;20.80;82.80;;;;;;4987916;28;20982;-87
2022/08/05 07:21:14;;;;;;;8.73;7.27;;;20.80;1.00;;;;;;4990574;28;20428;-88
2022/08/05 07:23:39;;;;;;;9.87;7.40;;;20.70;1.00;;;;;;4989513;28;20274;-87
2022/08/05 07:26:05;;;;;;;12.03;8.20;;;20.70;1.00;;;;;;4986397;28;20189;-86
2022/08/05 07:28:30;;;;;;;11.57;7.47;;;20.70;1.00;;;;;;5005708;28;20227;-87
2022/08/05 07:30:56;;;;;;;10.87;7.60;;;20.70;1.00;;;;;;4992967;28;20261;-87
2022/08/05 07:33:22;;;;;;;10.80;6.77;;;20.60;1.00;;;;;;4992526;28;20190;-87
2022/08/05 07:35:47;;;;;;;10.43;7.30;;;20.60;99.90;;;;;;4995508;28;20705;-88
2022/08/05 07:38:15;;;;;;;8.87;6.33;;;20.70;99.90;;;;;;4990939;28;20224;-88
2022/08/05 07:40:40;;;;;;;9.50;5.93;;;20.70;99.90;;;;;;4975000;28;20554;-87
2022/08/05 07:43:06;;;;;;;7.77;6.03;;;20.70;99.90;;;;;;4994420;28;20512;-87
2022/08/05 07:45:32;;;;;;;8.27;6.60;;;20.70;77.70;;;;;;4995614;28;20188;-89
2022/08/05 07:47:58;;;;;;;12.77;6.77;;;20.70;1.00;;;;;;4990422;28;20221;-87
2022/08/05 07:50:23;;;;;;;8.70;6.87;;;20.70;1.00;;;;;;4997785;28;20203;-85
2022/08/05 07:52:49;;;;;;;9.00;6.10;;;20.70;1.00;;;;;;4992033;28;20426;-87
2022/08/05 07:55:14;;;;;;;11.20;7.70;;;20.70;1.00;;;;;;4985839;28;20223;-87
2022/08/05 07:57:40;;;;;;;9.23;6.47;;;20.70;1.00;;;;;;4996163;28;20215;-86
2022/08/05 08:00:07;;;;;;;12.27;6.07;;;20.70;1.00;;;;;;4994263;28;20211;-86
2022/08/05 08:02:33;;;;;;;11.27;5.50;;;20.60;1.00;;;;;;4996992;28;20342;-87
2022/08/05 08:05:00;;;;;;;8.40;5.73;;;20.60;99.90;;;;;;4991765;28;20572;-87
2022/08/05 08:07:25;;;;;;;6.77;5.97;;;20.60;99.90;;;;;;4996605;28;20444;-88
2022/08/05 08:09:52;;;;;;;8.00;5.13;;;20.60;99.90;;;;;;4997486;28;20541;-87
2022/08/05 08:12:18;;;;;;;8.83;5.50;;;20.60;99.90;;;;;;4999323;28;20270;-87
2022/08/05 08:14:44;;;;;;;6.60;4.97;;;20.70;99.90;;;;;;4979757;28;20533;-87
2022/08/05 08:17:10;;;;;;;8.73;5.07;;;20.70;99.90;;;;;;4976145;28;20217;-87
2022/08/05 08:19:37;;;;;;;13.40;7.10;;;20.80;99.90;;;;;;4976649;28;20534;-88
2022/08/05 08:22:03;;;;;;;8.03;6.03;;;20.80;1.00;;;;;;4996454;28;20452;-87
2022/08/05 08:24:30;;;;;;;7.67;5.30;;;20.80;1.00;;;;;;4995255;28;20476;-87
2022/08/05 08:26:56;;;;;;;11.03;5.47;;;20.80;1.00;;;;;;4975018;28;20504;-87
2022/08/05 08:29:21;;;;;;;8.00;5.43;;;20.80;1.00;;;;;;4992343;28;20983;-87
2022/08/05 08:31:47;;;;;;;9.83;4.43;;;20.80;99.90;;;;;;4994501;28;20216;-87
2022/08/05 08:34:13;;;;;;;10.10;4.70;;;20.90;99.90;;;;;;4993019;28;20179;-88
2022/08/05 08:36:39;;;;;;;9.50;4.80;;;21.00;1.00;;;;;;4992471;28;20467;-88
2022/08/05 08:39:04;;;;;;;10.20;4.83;;;21.10;1.00;;;;;;4999369;28;20218;-87
2022/08/05 08:41:33;;;;;;;10.23;4.97;;;21.10;1.00;;;;;;4989274;28;20184;-87
2022/08/05 08:44:00;;;;;;;6.40;4.13;;;21.10;99.90;;;;;;4995180;28;20268;-87
2022/08/05 08:46:29;;;;;;;5.37;4.53;;;21.00;99.90;;;;;;4987616;28;20444;-87
2022/08/05 08:48:56;;;;;;;9.00;4.60;;;21.00;99.90;;;;;;4992874;28;20458;-87
2022/08/05 08:51:23;;;;;;;11.50;4.40;;;21.00;99.90;;;;;;4993118;28;20437;-87
2022/08/05 08:53:48;;;;;;;7.70;4.43;;;21.10;99.90;;;;;;4994185;28;20816;-88
2022/08/05 08:56:16;;;;;;;5.63;4.00;;;21.20;99.90;;;;;;4994589;28;20439;-87
2022/08/05 08:58:42;;;;;;;5.60;3.73;;;21.30;1.00;;;;;;4995567;28;20303;-87
2022/08/05 09:01:08;;;;;;;6.93;4.20;;;21.50;1.00;;;;;;4993845;28;20515;-87
2022/08/05 09:03:35;;;;;;;5.87;4.40;;;21.60;1.00;;;;;;4994356;28;20562;-87
2022/08/05 09:06:01;;;;;;;5.57;4.00;;;21.80;99.90;;;;;;4993789;28;20468;-85
2022/08/05 09:08:26;;;;;;;7.50;3.80;;;21.90;99.90;;;;;;4996195;28;20967;-87
2022/08/05 09:10:52;;;;;;;5.23;3.90;;;22.10;99.90;;;;;;4997776;28;20192;-88
2022/08/05 09:13:18;;;;;;;9.30;4.13;;;22.10;29.70;;;;;;4991205;28;20190;-89
2022/08/05 09:15:45;;;;;;;6.47;4.43;;;22.00;1.00;;;;;;4978543;28;20201;-89
2022/08/05 09:18:11;;;;;;;5.07;3.87;;;21.90;1.00;;;;;;4989375;28;20600;-89
2022/08/05 09:20:36;;;;;;;4.67;3.83;;;21.90;1.00;;;;;;4992660;28;20518;-89
2022/08/05 09:23:19;;;;;;;9.50;4.30;;;21.80;1.00;;;;;;4999217;28;20450;-90
2022/08/05 09:25:50;;;;;;;9.00;7.17;;;21.80;1.00;;;;;;4989775;28;20188;-88
2022/08/05 09:28:20;;;;;;;9.20;7.57;;;21.80;1.00;;;;;;4991805;28;20473;-88
2022/08/05 09:30:57;;;;;;;12.70;4.67;;;21.90;1.00;;;;;;4994834;28;20502;-89
2022/08/05 09:33:45;;;;;;;6.80;4.57;;;22.00;1.00;;;;;;4990782;28;20459;-88
2022/08/05 09:36:11;;;;;;;6.90;6.03;;;22.00;1.00;;;;;;4981256;28;21132;-89
2022/08/05 09:38:36;;;;;;;5.60;4.53;;;22.00;1.00;;;;;;4986620;28;20517;-90
2022/08/05 09:41:04;;;;;;;6.10;4.17;;;22.10;99.90;;;;;;4995140;28;20250;-90
2022/08/05 09:43:35;;;;;;;8.40;4.43;;;22.40;99.90;;;;;;4994736;28;20187;-89
2022/08/05 09:46:03;;;;;;;6.50;4.83;;;23.10;99.90;;;;;;4994838;28;20439;-88
2022/08/05 09:48:33;;;;;;;5.70;4.30;;;24.20;22.30;;;;;;4995299;28;20835;-89
2022/08/05 09:51:01;;;;;;;9.97;4.30;;;24.90;1.00;;;;;;4992852;28;20429;-87
2022/08/05 09:53:29;;;;;;;5.70;4.00;;;25.20;1.00;;;;;;4992280;28;20949;-88
2022/08/05 09:56:01;;;;;;;6.43;3.30;;;25.50;99.90;;;;;;4988852;28;20450;-89
2022/08/05 09:58:27;;;;;;;5.03;4.10;;;25.90;99.90;;;;;;4992897;28;21054;-89
2022/08/05 10:01:04;;;;;;;9.17;3.67;;;26.00;99.90;;;;;;4997185;28;20438;-89
2022/08/05 10:03:30;;;;;;;6.93;3.20;;;26.50;99.90;;;;;;4994152;28;20439;-91
2022/08/05 10:06:07;;;;;;;5.53;3.30;;;28.30;99.90;;;;;;4980293;28;20519;-90
2022/08/05 10:08:37;;;;;;;4.53;2.60;;;28.80;99.90;;;;;;4993413;28;20549;-90
2022/08/05 10:11:18;;;;;;;5.93;2.97;;;29.30;99.90;;;;;;4995794;28;20448;-90
2022/08/05 10:13:43;;;;;;;5.07;2.90;;;29.70;99.90;;;;;;4990942;28;20521;-90
2022/08/05 10:16:33;;;;;;;3.83;2.27;;;30.10;99.90;;;;;;4994182;28;20504;-89
2022/08/05 10:19:00;;;;;;;6.23;2.60;;;31.60;99.90;;;;;;4975649;28;20200;-90
2022/08/05 10:21:26;;;;;;;4.50;2.80;;;31.70;99.90;;;;;;4993920;28;20414;-90
2022/08/05 10:23:53;;;;;;;7.20;2.97;;;31.10;99.90;;;;;;4995008;28;20430;-89
2022/08/05 10:26:19;;;;;;;6.03;2.40;;;30.80;99.90;;;;;;4994049;28;20434;-90
2022/08/05 10:28:45;;;;;;;6.40;2.90;;;30.60;99.90;;;;;;4990642;28;20462;-89
2022/08/05 10:31:13;;;;;;;4.70;2.83;;;30.20;99.90;;;;;;4998770;28;20183;-90
2022/08/05 10:33:42;;;;;;;5.87;3.40;;;29.90;99.90;;;;;;4994167;28;20489;-89
2022/08/05 10:36:07;;;;;;;10.83;3.00;;;29.90;99.90;;;;;;4993760;28;20491;-89
2022/08/05 10:38:35;;;;;;;5.70;3.87;;;29.90;99.90;;;;;;4994084;28;20474;-91
2022/08/05 10:41:10;;;;;;;4.83;3.20;;;29.90;99.90;;;;;;4997403;28;20175;-90
2022/08/05 10:43:45;;;;;;;4.40;2.87;;;31.80;99.90;;;;;;4993218;28;20437;-86
2022/08/05 10:46:16;;;;;;;3.43;2.40;;;32.60;99.90;;;;;;4994339;28;20441;-85
2022/08/05 10:48:45;;;;;;;5.63;3.23;;;34.70;99.90;;;;;;4985382;28;20453;-86
2022/08/05 10:51:15;;;;;;;5.43;2.77;;;35.20;99.90;;;;;;4988796;28;20992;-86
2022/08/05 10:53:50;;;;;;;3.87;2.97;;;35.80;99.90;;;;;;4994468;28;20459;-86
2022/08/05 10:56:19;;;;;;;4.70;2.33;;;36.10;99.90;;;;;;4996904;28;20991;-86
2022/08/05 10:58:53;;;;;;;4.70;3.00;;;37.50;99.90;;;;;;4991003;28;20529;-86
2022/08/05 11:01:28;;;;;;;3.37;2.07;;;38.70;99.90;;;;;;4986361;28;20441;-87
2022/08/05 11:04:20;;;;;;;3.20;2.17;;;39.90;99.90;;;;;;4992157;28;20449;-87
2022/08/05 11:07:10;;;;;;;4.30;2.20;;;40.10;99.90;;;;;;4997098;28;20467;-87
2022/08/05 11:09:44;;;;;;;3.07;1.90;;;41.30;95.60;;;;;;4991365;28;20455;-87
2022/08/05 11:12:40;;;;;;;3.30;1.97;;;41.50;92.00;;;;;;5000627;28;20485;-88
2022/08/05 11:15:15;;;;;;;4.27;2.40;;;41.10;82.20;;;;;;4988989;28;20972;-86
2022/08/05 11:17:43;;;;;;;3.40;2.40;;;40.50;72.70;;;;;;4978345;28;20466;-86
2022/08/05 11:20:41;;;;;;;3.40;2.33;;;39.30;63.40;;;;;;4987609;28;20443;-86
2022/08/05 11:23:42;;;;;;;4.57;2.13;;;37.90;72.70;;;;;;4985321;28;20441;-87
2022/08/05 11:26:09;;;;;;;6.10;2.73;;;36.50;53.40;;;;;;4985429;28;20445;-87
2022/08/05 11:28:35;;;;;;;3.83;2.23;;;35.30;51.40;;;;;;4990366;28;20494;-86
2022/08/05 11:31:00;;;;;;;5.73;2.80;;;34.30;50.40;;;;;;4984455;28;20834;-86
2022/08/05 11:33:38;;;;;;;4.30;2.70;;;33.60;49.10;;;;;;4989155;28;20183;-87
2022/08/05 11:36:05;;;;;;;6.90;2.83;;;32.90;49.90;;;;;;4989147;28;20620;-87
2022/08/05 11:38:43;;;;;;;4.50;2.40;;;32.40;50.10;;;;;;4977450;28;20471;-86
2022/08/05 11:41:15;;;;;;;6.07;2.63;;;32.00;51.70;;;;;;4982068;28;20427;-86
2022/08/05 11:44:05;;;;;;;3.10;2.57;;;31.50;52.80;;;;;;4990199;28;20529;-86
2022/08/05 11:46:36;;;;;;;4.00;2.40;;;31.30;52.90;;;;;;4988844;28;20411;-87
2022/08/05 11:49:12;;;;;;;3.60;2.70;;;32.30;58.90;;;;;;4995779;28;20972;-84
2022/08/05 11:51:41;;;;;;;6.03;3.60;;;32.70;59.80;;;;;;4993048;28;20453;-84
2022/08/05 11:54:07;;;;;;;5.73;2.80;;;33.50;63.00;;;;;;4988292;28;20494;-83
2022/08/05 11:56:47;;;;;;;4.10;2.40;;;34.50;66.10;;;;;;4985742;28;20441;-86
2022/08/05 11:59:20;;;;;;;4.33;2.70;;;35.60;68.60;;;;;;4997162;28;20473;-87
2022/08/05 12:02:15;;;;;;;7.23;2.60;;;36.60;68.70;;;;;;4979194;28;20458;-87
2022/08/05 12:04:48;;;;;;;6.80;3.00;;;37.00;63.50;;;;;;4961010;28;20528;-87
2022/08/05 12:07:15;;;;;;;11.43;2.50;;;37.60;81.30;;;;;;4988687;28;20514;-87
2022/08/05 12:09:51;;;;;;;4.87;2.60;;;38.00;59.40;;;;;;4993736;28;20465;-86
2022/08/05 12:12:27;;;;;;;4.93;2.50;;;38.20;56.90;;;;;;4989019;28;20438;-87
2022/08/05 12:14:53;;;;;;;4.27;2.67;;;37.80;52.50;;;;;;4991571;28;20856;-86
2022/08/05 12:17:26;;;;;;;4.07;2.00;;;37.80;50.60;;;;;;4991349;28;20439;-86
2022/08/05 12:19:54;;;;;;;3.60;2.20;;;38.10;49.80;;;;;;4988960;28;20214;-87
2022/08/05 12:22:24;;;;;;;5.10;2.50;;;38.20;60.90;;;;;;4986769;28;20442;-87
2022/08/05 12:24:50;;;;;;;3.13;2.37;;;38.70;48.70;;;;;;4995780;28;20834;-85
2022/08/05 12:27:34;;;;;;;3.83;3.03;;;39.00;46.50;;;;;;4983988;28;20546;-88
2022/08/05 12:30:04;;;;;;;14.40;3.23;;;38.90;42.90;;;;;;4977289;28;20203;-86
2022/08/05 12:32:34;;;;;;;5.10;2.67;;;39.00;43.00;;;;;;4990297;28;20751;-86
2022/08/05 12:35:03;;;;;;;5.40;2.40;;;38.40;39.00;;;;;;4991859;28;20965;-85
2022/08/05 12:37:29;;;;;;;4.10;2.30;;;37.30;35.60;;;;;;4985730;28;20527;-86
2022/08/05 12:39:56;;;;;;;3.90;2.40;;;36.50;33.40;;;;;;5003919;22;20581;-86
2022/08/05 12:42:22;;;;;;;3.93;2.27;;;36.30;33.80;;;;;;5005024;28;20648;-85
2022/08/05 12:44:48;;;;;;;7.40;2.50;;;35.70;32.30;;;;;;4990822;28;20432;-88
2022/08/05 12:47:26;;;;;;;2.87;1.87;;;36.00;34.10;;;;;;5002189;28;20208;-85
2022/08/05 12:49:52;;;;;;;5.10;2.17;;;36.00;34.10;;;;;;4978710;28;20464;-88
2022/08/05 12:52:18;;;;;;;5.53;2.07;;;36.60;35.90;;;;;;4952715;28;20981;-88
2022/08/05 12:54:47;;;;;;;7.67;2.57;;;36.30;34.40;;;;;;4990493;28;20183;-89
2022/08/05 12:57:13;;;;;;;3.43;1.50;;;35.70;32.80;;;;;;4982509;28;20431;-86